createdAt,value
2022-10-11T00:02:50.723Z,10.00
2022-10-11T00:05:58.320Z,14.57
2022-10-11T00:09:04.358Z,9.23
2022-10-11T00:12:10.205Z,10.07
2022-10-11T00:15:18.974Z,12.40
2022-10-11T00:18:25.501Z,8.50
2022-10-11T00:21:33.286Z,8.33
2022-10-11T00:24:39.461Z,8.60
2022-10-11T00:27:46.374Z,8.50
2022-10-11T00:30:52.235Z,9.10
2022-10-11T00:33:58.751Z,9.30
2022-10-11T00:37:06.318Z,9.27
2022-10-11T00:40:17.576Z,9.33
2022-10-11T00:43:27.297Z,9.97
2022-10-11T00:46:33.758Z,9.37
2022-10-11T00:49:43.860Z,9.60
2022-10-11T00:52:56.859Z,8.60
2022-10-11T00:56:08.918Z,8.30
2022-10-11T00:59:23.115Z,8.27
2022-10-11T01:02:30.401Z,9.17
2022-10-11T01:05:39.958Z,16.80
2022-10-11T01:08:47.683Z,8.27
2022-10-11T01:11:57.482Z,8.67
2022-10-11T01:15:17.367Z,8.43
2022-10-11T01:18:31.949Z,8.43
2022-10-11T01:21:44.055Z,8.47
2022-10-11T01:25:11.644Z,8.10
2022-10-11T01:28:31.117Z,10.27
2022-10-11T01:31:43.834Z,8.40
2022-10-11T01:34:58.792Z,7.80
2022-10-11T01:38:14.467Z,7.77
2022-10-11T01:41:25.389Z,7.53
2022-10-11T01:44:34.493Z,8.03
2022-10-11T01:47:42.636Z,8.60
2022-10-11T01:50:51.536Z,7.70
2022-10-11T01:54:08.670Z,7.57
2022-10-11T01:57:42.487Z,30.10
2022-10-11T02:00:58.160Z,12.07
2022-10-11T02:04:15.900Z,8.83
2022-10-11T02:07:27.492Z,8.30
2022-10-11T02:10:37.703Z,8.13
2022-10-11T02:13:49.872Z,8.10
2022-10-11T02:17:01.460Z,8.53
2022-10-11T02:20:14.444Z,8.30
2022-10-11T02:23:29.351Z,12.67
2022-10-11T02:26:36.483Z,8.27
2022-10-11T02:29:46.452Z,7.97
2022-10-11T02:32:55.155Z,9.13
2022-10-11T02:36:09.936Z,7.87
2022-10-11T02:39:21.229Z,7.47
2022-10-11T02:42:30.996Z,8.60
2022-10-11T02:45:40.459Z,8.33
2022-10-11T02:48:46.776Z,7.63
2022-10-11T02:51:56.495Z,8.00
2022-10-11T02:55:02.772Z,7.63
2022-10-11T02:58:09.142Z,8.00
2022-10-11T03:01:15.889Z,7.30
2022-10-11T03:04:22.148Z,45.00
2022-10-11T03:07:29.800Z,12.67
2022-10-11T03:10:35.851Z,11.37
2022-10-11T03:13:42.096Z,14.20
2022-10-11T03:16:48.713Z,16.00
2022-10-11T03:19:55.232Z,19.50
2022-10-11T03:23:02.943Z,22.47
2022-10-11T03:26:09.310Z,9.93
2022-10-11T03:29:15.492Z,9.30
2022-10-11T03:32:21.821Z,11.40
2022-10-11T03:35:28.230Z,7.77
2022-10-11T03:38:36.049Z,8.03
2022-10-11T03:41:42.172Z,7.07
2022-10-11T03:44:50.292Z,7.33
2022-10-11T03:47:56.594Z,10.23
2022-10-11T03:51:03.015Z,11.50
2022-10-11T03:54:10.848Z,25.03
2022-10-11T03:57:16.709Z,15.03
2022-10-11T04:00:23.087Z,10.93
2022-10-11T04:03:29.427Z,11.70
2022-10-11T04:06:35.625Z,8.53
2022-10-11T04:09:43.342Z,7.73
2022-10-11T04:12:49.117Z,9.43
2022-10-11T04:15:55.358Z,10.37
2022-10-11T04:19:01.525Z,9.10
2022-10-11T04:22:08.075Z,8.03
2022-10-11T04:25:15.959Z,13.40
2022-10-11T04:28:22.274Z,17.30
2022-10-11T04:31:28.393Z,13.00
2022-10-11T04:34:34.903Z,8.90
2022-10-11T04:37:41.314Z,10.57
2022-10-11T04:40:48.973Z,10.27
2022-10-11T04:43:55.075Z,9.77
2022-10-11T04:47:01.439Z,9.03
2022-10-11T04:50:08.201Z,15.07
2022-10-11T04:53:14.223Z,10.63
2022-10-11T04:56:21.972Z,12.47
2022-10-11T04:59:28.363Z,13.57
2022-10-11T05:02:34.696Z,13.43
2022-10-11T05:05:40.781Z,11.73
2022-10-11T05:08:47.065Z,9.60
2022-10-11T05:11:54.553Z,9.23
2022-10-11T05:15:00.811Z,12.33
2022-10-11T05:18:07.199Z,13.03
2022-10-11T05:21:18.047Z,18.97
2022-10-11T05:24:24.392Z,18.40
2022-10-11T05:27:32.555Z,24.53
2022-10-11T05:30:38.861Z,22.33
2022-10-11T05:33:45.040Z,21.67
2022-10-11T05:36:51.362Z,18.33
2022-10-11T05:39:57.704Z,11.00
2022-10-11T05:43:05.268Z,13.47
2022-10-11T05:46:11.770Z,11.63
2022-10-11T05:49:17.910Z,12.93
2022-10-11T05:52:24.331Z,14.77
2022-10-11T05:55:30.562Z,13.43
2022-10-11T05:58:38.214Z,14.40
2022-10-11T06:01:44.563Z,15.60
2022-10-11T06:04:50.974Z,17.53
2022-10-11T06:07:58.288Z,20.97
2022-10-11T06:11:12.122Z,20.57
2022-10-11T06:14:20.404Z,27.83
2022-10-11T06:17:27.102Z,24.47
2022-10-11T06:20:33.264Z,19.60
2022-10-11T06:23:39.666Z,18.47
2022-10-11T06:26:45.828Z,16.23
2022-10-11T06:29:53.667Z,20.77
2022-10-11T06:33:04.470Z,16.47
2022-10-11T06:36:13.649Z,14.53
2022-10-11T06:39:20.331Z,12.57
2022-10-11T06:42:26.324Z,14.33
2022-10-11T06:45:33.999Z,21.57
2022-10-11T06:48:41.787Z,14.70
2022-10-11T06:51:48.134Z,12.50
2022-10-11T06:54:54.122Z,11.40
2022-10-11T06:58:00.250Z,9.63
2022-10-11T07:01:10.281Z,9.20
2022-10-11T07:04:16.295Z,10.03
2022-10-11T07:07:22.597Z,9.57
2022-10-11T07:10:29.152Z,12.77
2022-10-11T07:13:35.163Z,8.97
2022-10-11T07:16:42.660Z,13.67
2022-10-11T07:19:49.030Z,10.87
2022-10-11T07:22:54.944Z,11.20
2022-10-11T07:26:01.307Z,20.83
2022-10-11T07:29:08.300Z,11.67
2022-10-11T07:32:16.484Z,12.10
2022-10-11T07:35:22.685Z,10.73
2022-10-11T07:38:29.386Z,11.20
2022-10-11T07:41:38.172Z,10.60
2022-10-11T07:44:46.911Z,10.60
2022-10-11T07:47:56.291Z,10.30
2022-10-11T07:51:07.887Z,9.93
2022-10-11T07:54:14.009Z,8.70
2022-10-11T07:57:20.502Z,10.27
2022-10-11T08:00:27.155Z,12.20
2022-10-11T08:03:34.548Z,12.67
2022-10-11T08:06:40.795Z,11.77
2022-10-11T08:09:46.794Z,12.50
2022-10-11T08:12:53.910Z,12.93
2022-10-11T08:16:00.691Z,14.67
2022-10-11T08:19:08.551Z,12.63
2022-10-11T08:22:14.419Z,12.50
2022-10-11T08:25:20.701Z,11.97
2022-10-11T08:28:27.053Z,13.00
2022-10-11T08:31:34.000Z,10.77
2022-10-11T08:34:41.511Z,14.43
2022-10-11T08:37:48.067Z,11.97
2022-10-11T08:40:57.382Z,12.70
2022-10-11T08:44:14.156Z,12.73
2022-10-11T08:47:24.361Z,11.73
2022-10-11T08:50:32.407Z,12.33
2022-10-11T08:53:46.104Z,12.97
2022-10-11T08:56:52.982Z,11.90
2022-10-11T09:00:01.929Z,25.57
2022-10-11T09:03:23.068Z,11.87
2022-10-11T09:06:39.634Z,9.37
2022-10-11T09:10:00.401Z,15.27
2022-10-11T09:13:20.014Z,11.47
2022-10-11T09:16:37.660Z,9.43
2022-10-11T09:20:05.973Z,10.73
2022-10-11T09:23:24.722Z,8.67
2022-10-11T09:26:38.656Z,8.37
2022-10-11T09:29:59.376Z,8.53
2022-10-11T09:33:14.594Z,8.37
2022-10-11T09:36:26.684Z,8.23
2022-10-11T09:39:37.873Z,10.23
2022-10-11T09:42:44.175Z,10.10
2022-10-11T09:45:50.421Z,8.83
2022-10-11T09:48:58.683Z,9.93
2022-10-11T09:52:07.466Z,9.70
2022-10-11T09:55:31.543Z,8.43
2022-10-11T09:58:38.755Z,8.17
2022-10-11T10:01:44.877Z,8.70
2022-10-11T10:05:00.428Z,8.40
2022-10-11T10:08:23.899Z,7.93
2022-10-11T10:11:37.934Z,7.90
2022-10-11T10:14:44.186Z,9.40
2022-10-11T10:17:51.813Z,6.93
2022-10-11T10:21:00.743Z,7.33
2022-10-11T10:24:18.463Z,8.73
2022-10-11T10:27:28.123Z,7.20
2022-10-11T10:30:35.732Z,7.30
2022-10-11T10:33:42.415Z,7.20
2022-10-11T10:36:56.008Z,9.43
2022-10-11T10:40:07.847Z,7.40
2022-10-11T10:43:17.676Z,6.57
2022-10-11T10:46:46.557Z,6.03
2022-10-11T10:49:58.611Z,6.67
2022-10-11T10:53:18.322Z,6.03
2022-10-11T10:56:31.107Z,5.50
2022-10-11T10:59:55.507Z,8.10
2022-10-11T11:03:04.490Z,8.20
2022-10-11T11:06:21.813Z,10.60
2022-10-11T11:09:40.515Z,7.87
2022-10-11T11:12:51.631Z,7.53
2022-10-11T11:16:11.816Z,7.50
2022-10-11T11:19:34.692Z,10.43
2022-10-11T11:22:51.611Z,14.10
2022-10-11T11:26:07.972Z,10.07
2022-10-11T11:29:28.153Z,10.70
2022-10-11T11:32:50.366Z,10.00
2022-10-11T11:36:03.350Z,7.50
2022-10-11T11:39:17.552Z,7.23
2022-10-11T11:42:27.877Z,9.63
2022-10-11T11:45:45.180Z,8.77
2022-10-11T11:48:54.962Z,8.00
2022-10-11T11:52:01.917Z,7.50
2022-10-11T11:55:18.009Z,7.93
2022-10-11T11:58:43.860Z,8.80
2022-10-11T12:01:59.055Z,8.73
2022-10-11T12:05:09.301Z,8.37
2022-10-11T12:08:26.942Z,8.43
2022-10-11T12:11:54.491Z,9.33
2022-10-11T12:15:17.175Z,9.70
2022-10-11T12:18:23.753Z,11.37
2022-10-11T12:21:36.803Z,12.23
2022-10-11T12:24:55.381Z,11.70
2022-10-11T12:28:03.376Z,12.53
2022-10-11T12:31:24.152Z,12.30
2022-10-11T12:34:36.736Z,11.47
2022-10-11T12:37:52.220Z,15.67
2022-10-11T12:41:00.915Z,8.63
2022-10-11T12:44:21.571Z,7.47
2022-10-11T12:47:42.999Z,6.97
2022-10-11T12:51:03.046Z,7.47
2022-10-11T12:54:39.182Z,6.50
2022-10-11T12:58:22.991Z,6.07
2022-10-11T13:01:34.493Z,5.10
2022-10-11T13:04:40.814Z,5.03
2022-10-11T13:07:47.184Z,5.73
2022-10-11T13:10:57.226Z,6.77
2022-10-11T13:14:10.094Z,6.17
2022-10-11T13:17:20.788Z,6.23
2022-10-11T13:20:29.502Z,5.23
2022-10-11T13:23:39.387Z,14.77
2022-10-11T13:26:50.311Z,6.33
2022-10-11T13:30:02.285Z,7.00
2022-10-11T13:33:19.194Z,7.53
2022-10-11T13:36:28.006Z,6.73
2022-10-11T13:39:37.919Z,5.87
2022-10-11T13:42:48.543Z,7.07
2022-10-11T13:45:55.166Z,7.93
2022-10-11T13:49:02.858Z,7.23
2022-10-11T13:52:23.022Z,8.80
2022-10-11T13:55:34.901Z,16.60
2022-10-11T13:58:47.745Z,8.53
2022-10-11T14:01:59.716Z,8.13
2022-10-11T14:05:06.697Z,9.03
2022-10-11T14:08:23.852Z,9.67
2022-10-11T14:11:38.264Z,10.43
2022-10-11T14:14:49.053Z,10.70
2022-10-11T14:17:55.339Z,10.83
2022-10-11T14:21:34.044Z,10.30
2022-10-11T14:24:40.487Z,9.70
2022-10-11T14:27:47.007Z,12.30
2022-10-11T14:30:54.442Z,7.97
2022-10-11T14:34:00.819Z,8.37
2022-10-11T14:37:07.291Z,10.67
2022-10-11T14:40:16.948Z,14.60
2022-10-11T14:43:23.354Z,14.53
2022-10-11T14:46:31.111Z,10.37
2022-10-11T14:49:38.808Z,9.30
2022-10-11T14:52:45.519Z,8.40
2022-10-11T14:55:52.427Z,7.87
2022-10-11T14:58:58.882Z,7.37
2022-10-11T15:02:09.083Z,7.97
2022-10-11T15:05:15.437Z,7.17
2022-10-11T15:08:21.395Z,7.20
2022-10-11T15:11:27.919Z,7.57
2022-10-11T15:14:34.321Z,9.53
2022-10-11T15:17:41.946Z,13.67
2022-10-11T15:20:47.976Z,13.07
2022-10-11T15:23:56.163Z,15.63
2022-10-11T15:27:02.057Z,15.13
2022-10-11T15:30:14.393Z,9.63
2022-10-11T15:33:22.505Z,9.53
2022-10-11T15:36:29.702Z,15.63
2022-10-11T15:39:35.879Z,8.27
2022-10-11T15:42:42.625Z,10.37
2022-10-11T15:45:48.783Z,10.03
2022-10-11T15:48:56.426Z,10.73
2022-10-11T15:52:02.417Z,11.83
2022-10-11T15:55:09.283Z,14.23
2022-10-11T15:58:16.410Z,13.60
2022-10-11T16:01:22.730Z,14.10
2022-10-11T16:04:30.349Z,10.90
2022-10-11T16:07:36.582Z,9.87
2022-10-11T16:10:43.178Z,9.53
2022-10-11T16:13:50.401Z,13.00
2022-10-11T16:16:56.440Z,15.10
2022-10-11T16:20:06.847Z,13.90
2022-10-11T16:23:13.511Z,13.20
2022-10-11T16:26:19.826Z,14.43
2022-10-11T16:29:27.040Z,15.23
2022-10-11T16:32:34.549Z,15.33
2022-10-11T16:35:44.701Z,15.63
2022-10-11T16:38:50.904Z,16.73
2022-10-11T16:41:57.207Z,14.00
2022-10-11T16:45:03.969Z,17.87
2022-10-11T16:48:10.308Z,16.33
2022-10-11T16:51:17.710Z,20.93
2022-10-11T16:54:24.162Z,31.13
2022-10-11T16:57:30.791Z,21.03
2022-10-11T17:00:36.919Z,19.40
2022-10-11T17:03:43.084Z,21.33
2022-10-11T17:06:51.258Z,22.63
2022-10-11T17:09:58.155Z,28.30
2022-10-11T17:13:04.371Z,24.33
2022-10-11T17:16:11.265Z,16.20
2022-10-11T17:19:17.599Z,12.93
2022-10-11T17:22:25.735Z,11.60
2022-10-11T17:25:31.971Z,11.43
2022-10-11T17:28:39.066Z,12.47
2022-10-11T17:31:48.946Z,11.90
2022-10-11T17:34:57.782Z,11.77
2022-10-11T17:38:08.777Z,12.13
2022-10-11T17:41:16.445Z,15.53
2022-10-11T17:44:23.329Z,17.07
2022-10-11T17:47:30.341Z,15.90
2022-10-11T17:50:41.025Z,13.47
2022-10-11T17:53:51.005Z,13.40
2022-10-11T17:56:57.163Z,18.03
2022-10-11T18:00:06.579Z,20.73
2022-10-11T18:03:12.622Z,32.27
2022-10-11T18:06:18.843Z,31.97
2022-10-11T18:09:27.313Z,39.33
2022-10-11T18:12:33.465Z,35.87
2022-10-11T18:15:40.022Z,46.53
2022-10-11T18:18:46.392Z,41.37
2022-10-11T18:21:52.707Z,33.27
2022-10-11T18:25:00.474Z,34.07
2022-10-11T18:28:09.682Z,30.03
2022-10-11T18:31:18.571Z,26.73
2022-10-11T18:34:25.211Z,21.67
2022-10-11T18:37:31.780Z,19.07
2022-10-11T18:40:44.777Z,15.43
2022-10-11T18:43:56.504Z,13.40
2022-10-11T18:47:02.898Z,13.23
2022-10-11T18:50:13.111Z,12.90
2022-10-11T18:53:21.792Z,16.30
2022-10-11T18:56:36.003Z,31.93
2022-10-11T18:59:42.015Z,19.97
2022-10-11T19:02:48.934Z,18.70
2022-10-11T19:05:55.415Z,16.10
2022-10-11T19:09:03.081Z,11.83
2022-10-11T19:12:11.038Z,10.60
2022-10-11T19:15:17.752Z,8.17
2022-10-11T19:18:27.380Z,8.17
2022-10-11T19:21:34.408Z,6.47
2022-10-11T19:24:40.883Z,7.70
2022-10-11T19:27:48.768Z,7.60
2022-10-11T19:30:55.053Z,7.77
2022-10-11T19:34:01.128Z,8.50
2022-10-11T19:37:07.871Z,8.70
2022-10-11T19:40:14.620Z,9.03
2022-10-11T19:43:22.223Z,9.50
2022-10-11T19:46:50.524Z,10.67
2022-10-11T19:49:55.894Z,10.43
2022-10-11T19:53:02.388Z,9.57
2022-10-11T19:56:10.444Z,10.20
2022-10-11T19:59:18.332Z,10.40
2022-10-11T20:02:24.547Z,10.97
2022-10-11T20:05:30.848Z,9.47
2022-10-11T20:08:37.631Z,9.23
2022-10-11T20:11:43.884Z,8.73
2022-10-11T20:14:51.695Z,9.67
2022-10-11T20:17:57.969Z,7.70
2022-10-11T20:21:06.249Z,8.97
2022-10-11T20:24:12.621Z,8.33
2022-10-11T20:27:19.104Z,7.67
2022-10-11T20:30:45.219Z,8.33
2022-10-11T20:33:51.709Z,11.47
2022-10-11T20:36:57.999Z,14.00
2022-10-11T20:40:04.767Z,12.47
2022-10-11T20:43:10.882Z,13.47
2022-10-11T20:46:21.103Z,9.63
2022-10-11T20:49:27.227Z,9.27
2022-10-11T20:52:33.457Z,8.97
2022-10-11T20:55:40.106Z,8.50
2022-10-11T20:58:46.798Z,8.00
2022-10-11T21:01:54.387Z,7.33
2022-10-11T21:05:00.353Z,8.90
2022-10-11T21:08:07.079Z,9.37
2022-10-11T21:11:13.299Z,8.13
2022-10-11T21:14:19.361Z,8.97
2022-10-11T21:17:27.126Z,8.50
2022-10-11T21:20:33.093Z,7.67
2022-10-11T21:23:40.099Z,8.60
2022-10-11T21:26:46.189Z,10.10
2022-10-11T21:29:52.544Z,9.90
2022-10-11T21:33:00.494Z,9.27
2022-10-11T21:36:11.038Z,6.67
2022-10-11T21:39:17.107Z,7.17
2022-10-11T21:42:28.559Z,8.87
2022-10-11T21:45:38.192Z,9.63
2022-10-11T21:48:45.643Z,8.33
2022-10-11T21:51:51.920Z,6.93
2022-10-11T21:54:57.969Z,7.60
2022-10-11T21:58:04.257Z,7.40
2022-10-11T22:01:12.441Z,9.80
2022-10-11T22:04:20.293Z,9.93
2022-10-11T22:07:26.375Z,9.40
2022-10-11T22:10:34.654Z,8.47
2022-10-11T22:13:41.142Z,7.87
2022-10-11T22:16:47.292Z,7.60
2022-10-11T22:19:55.024Z,7.97
2022-10-11T22:23:01.975Z,7.40
2022-10-11T22:26:13.229Z,8.00
2022-10-11T22:29:19.491Z,7.37
2022-10-11T22:32:25.602Z,7.80
2022-10-11T22:35:37.563Z,7.93
2022-10-11T22:38:44.877Z,6.13
2022-10-11T22:41:50.796Z,7.17
2022-10-11T22:44:57.108Z,7.30
2022-10-11T22:48:04.070Z,7.10
2022-10-11T22:51:14.277Z,7.07
2022-10-11T22:54:20.570Z,6.03
2022-10-11T22:57:26.760Z,5.97
2022-10-11T23:00:33.128Z,9.27
2022-10-11T23:03:39.946Z,7.63
2022-10-11T23:06:47.994Z,8.33
2022-10-11T23:09:54.026Z,7.87
2022-10-11T23:13:00.628Z,8.10
2022-10-11T23:16:08.557Z,7.80
2022-10-11T23:19:15.372Z,7.53
2022-10-11T23:22:23.303Z,7.00
2022-10-11T23:25:29.643Z,8.17
2022-10-11T23:28:36.238Z,7.97
2022-10-11T23:31:42.507Z,7.93
2022-10-11T23:34:48.574Z,7.83
2022-10-11T23:37:56.290Z,7.93
2022-10-11T23:41:02.254Z,7.93
2022-10-11T23:44:08.510Z,8.17
2022-10-11T23:47:14.688Z,14.30
2022-10-11T23:50:20.943Z,13.63
2022-10-11T23:53:28.435Z,13.83
2022-10-11T23:56:34.475Z,11.23
2022-10-11T23:59:40.654Z,9.57
